ENY3491 KBRO-KDFW
Flight info
| Callsign | ENY3491 |
|---|---|
| Flight time | 1h 19m |
| Altitude | 27000 |
| Route | CRP SAT GUTZZ BOOVE7 |
| Aircraft | E75L/M-SDE3GILORVW/S |
Departure
| Time | 2026-05-03 23:31 |
|---|---|
| Airport | Brownsville South Padre Island International Airport (KBRO) |
Arrival
| Time | 2026-05-04 00:50 |
|---|---|
| Airport | Dallas Fort Worth International Airport (KDFW) |
| Time | Latitude | Longitude | Altitude | Speed | Heading |
|---|---|---|---|---|---|
| 2026-05-03 22:54 | 25.90654 | -97.43199 | 28 ft | 0 kts | 271° |
| 2026-05-03 23:22 | 25.90653 | -97.43172 | 28 ft | 4 kts | 271° |
| 2026-05-03 23:22 | 25.90653 | -97.43143 | 28 ft | 4 kts | 271° |
| 2026-05-03 23:22 | 25.90652 | -97.43112 | 28 ft | 4 kts | 271° |
| 2026-05-03 23:23 | 25.90649 | -97.43088 | 28 ft | 4 kts | 297° |
| 2026-05-03 23:23 | 25.90630 | -97.43073 | 28 ft | 4 kts | 352° |
| 2026-05-03 23:23 | 25.90603 | -97.43073 | 28 ft | 3 kts | 2° |
| 2026-05-03 23:23 | 25.90598 | -97.43073 | 28 ft | 0 kts | 2° |
| 2026-05-03 23:25 | 25.90599 | -97.43073 | 28 ft | 1 kts | 2° |
| 2026-05-03 23:26 | 25.90653 | -97.43071 | 28 ft | 13 kts | 2° |
| 2026-05-03 23:26 | 25.90754 | -97.43066 | 28 ft | 16 kts | 2° |
| 2026-05-03 23:26 | 25.90872 | -97.43060 | 28 ft | 17 kts | 1° |
| 2026-05-03 23:26 | 25.90968 | -97.43050 | 28 ft | 12 kts | 32° |
| 2026-05-03 23:27 | 25.90987 | -97.42959 | 27 ft | 14 kts | 94° |
| 2026-05-03 23:27 | 25.90983 | -97.42844 | 27 ft | 16 kts | 92° |
| 2026-05-03 23:27 | 25.90928 | -97.42745 | 28 ft | 16 kts | 136° |
| 2026-05-03 23:27 | 25.90814 | -97.42618 | 27 ft | 33 kts | 136° |
| 2026-05-03 23:28 | 25.90625 | -97.42412 | 28 ft | 39 kts | 134° |
| 2026-05-03 23:28 | 25.90493 | -97.42276 | 26 ft | 14 kts | 150° |
| 2026-05-03 23:28 | 25.90417 | -97.42313 | 27 ft | 14 kts | 249° |
| 2026-05-03 23:28 | 25.90416 | -97.42424 | 27 ft | 13 kts | 270° |
| 2026-05-03 23:29 | 25.90389 | -97.42445 | 28 ft | 10 kts | 156° |
| 2026-05-03 23:29 | 25.90242 | -97.42288 | 28 ft | 42 kts | 134° |
| 2026-05-03 23:29 | 25.90060 | -97.42060 | 28 ft | 39 kts | 127° |
| 2026-05-03 23:29 | 25.89902 | -97.41835 | 28 ft | 32 kts | 128° |
| 2026-05-03 23:30 | 25.89792 | -97.41683 | 27 ft | 17 kts | 126° |
| 2026-05-03 23:30 | 25.89813 | -97.41588 | 30 ft | 13 kts | 46° |
| 2026-05-03 23:30 | 25.89813 | -97.41587 | 30 ft | 13 kts | 46° |
| 2026-05-03 23:30 | 25.89827 | -97.41574 | 26 ft | 8 kts | 25° |
| 2026-05-03 23:31 | 25.89912 | -97.41636 | 27 ft | 41 kts | 316° |
| 2026-05-03 23:31 | 25.90316 | -97.42078 | 30 ft | 120 kts | 316° |
| 2026-05-03 23:31 | 25.91077 | -97.42906 | 138 ft | 176 kts | 318° |
| 2026-05-03 23:31 | 25.91948 | -97.43833 | 1144 ft | 177 kts | 327° |
| 2026-05-03 23:32 | 25.93108 | -97.44350 | 1981 ft | 186 kts | 359° |
| 2026-05-03 23:32 | 25.94412 | -97.44449 | 2730 ft | 194 kts | 1° |
| 2026-05-03 23:32 | 25.95833 | -97.44465 | 3355 ft | 214 kts | 1° |
| 2026-05-03 23:32 | 25.97347 | -97.44509 | 3866 ft | 241 kts | 1° |
| 2026-05-03 23:33 | 25.99100 | -97.44560 | 4579 ft | 261 kts | 0° |
| 2026-05-03 23:33 | 26.00983 | -97.44591 | 5297 ft | 277 kts | 0° |
| 2026-05-03 23:33 | 26.02935 | -97.44603 | 6074 ft | 290 kts | 359° |
| 2026-05-03 23:33 | 26.04846 | -97.44609 | 7083 ft | 287 kts | 358° |
| 2026-05-03 23:34 | 26.06875 | -97.44615 | 8025 ft | 291 kts | 358° |
| 2026-05-03 23:34 | 26.08915 | -97.44619 | 8961 ft | 294 kts | 358° |
| 2026-05-03 23:34 | 26.10928 | -97.44620 | 9896 ft | 293 kts | 358° |
| 2026-05-03 23:34 | 26.12991 | -97.44624 | 10372 ft | 309 kts | 357° |
| 2026-05-03 23:35 | 26.15179 | -97.44626 | 10808 ft | 324 kts | 358° |
| 2026-05-03 23:35 | 26.17473 | -97.44624 | 11247 ft | 337 kts | 357° |
| 2026-05-03 23:35 | 26.19822 | -97.44623 | 11779 ft | 345 kts | 357° |
| 2026-05-03 23:35 | 26.22218 | -97.44625 | 12524 ft | 347 kts | 356° |
| 2026-05-03 23:36 | 26.24586 | -97.44799 | 13303 ft | 344 kts | 346° |
| 2026-05-03 23:36 | 26.26886 | -97.45429 | 14157 ft | 343 kts | 341° |
| 2026-05-03 23:36 | 26.29198 | -97.46133 | 14919 ft | 347 kts | 341° |
| 2026-05-03 23:36 | 26.31542 | -97.46829 | 15671 ft | 351 kts | 341° |
| 2026-05-03 23:37 | 26.33907 | -97.47523 | 16401 ft | 354 kts | 341° |
| 2026-05-03 23:37 | 26.36309 | -97.48217 | 17104 ft | 358 kts | 341° |
| 2026-05-03 23:37 | 26.38729 | -97.48909 | 17860 ft | 360 kts | 341° |
| 2026-05-03 23:37 | 26.41144 | -97.49601 | 18491 ft | 363 kts | 340° |
| 2026-05-03 23:38 | 26.43570 | -97.50296 | 19072 ft | 365 kts | 340° |
| 2026-05-03 23:38 | 26.46029 | -97.51000 | 19649 ft | 368 kts | 340° |
| 2026-05-03 23:38 | 26.48494 | -97.51705 | 20237 ft | 370 kts | 340° |
| 2026-05-03 23:38 | 26.50999 | -97.52422 | 20826 ft | 373 kts | 339° |
| 2026-05-03 23:39 | 26.53530 | -97.53147 | 21409 ft | 376 kts | 339° |
| 2026-05-03 23:39 | 26.56075 | -97.53877 | 21964 ft | 378 kts | 339° |
| 2026-05-03 23:39 | 26.58637 | -97.54613 | 22504 ft | 381 kts | 339° |
| 2026-05-03 23:39 | 26.61214 | -97.55354 | 23040 ft | 384 kts | 338° |
| 2026-05-03 23:40 | 26.63757 | -97.56085 | 23549 ft | 387 kts | 338° |
| 2026-05-03 23:40 | 26.66366 | -97.56838 | 23997 ft | 389 kts | 338° |
| 2026-05-03 23:40 | 26.68961 | -97.57584 | 24491 ft | 390 kts | 338° |
| 2026-05-03 23:40 | 26.71569 | -97.58336 | 24921 ft | 392 kts | 338° |
| 2026-05-03 23:41 | 26.74218 | -97.59102 | 25321 ft | 394 kts | 338° |
| 2026-05-03 23:41 | 26.76876 | -97.59870 | 25732 ft | 396 kts | 338° |
| 2026-05-03 23:41 | 26.79477 | -97.60623 | 26099 ft | 398 kts | 338° |
| 2026-05-03 23:41 | 26.82167 | -97.61403 | 26472 ft | 400 kts | 338° |
| 2026-05-03 23:42 | 26.84868 | -97.62186 | 26830 ft | 402 kts | 338° |
| 2026-05-03 23:42 | 26.87590 | -97.62977 | 27048 ft | 407 kts | 338° |
| 2026-05-03 23:42 | 26.90321 | -97.63777 | 27144 ft | 413 kts | 338° |
| 2026-05-03 23:42 | 26.93116 | -97.64595 | 27122 ft | 415 kts | 338° |
| 2026-05-03 23:43 | 26.95919 | -97.65417 | 27121 ft | 417 kts | 338° |
| 2026-05-03 23:43 | 26.98724 | -97.66237 | 27133 ft | 416 kts | 338° |
| 2026-05-03 23:43 | 27.01523 | -97.67059 | 27131 ft | 416 kts | 338° |
| 2026-05-03 23:43 | 27.04330 | -97.67882 | 27133 ft | 417 kts | 338° |
| 2026-05-03 23:44 | 27.07137 | -97.68706 | 27135 ft | 417 kts | 338° |
| 2026-05-03 23:44 | 27.09938 | -97.69528 | 27134 ft | 417 kts | 338° |
| 2026-05-03 23:44 | 27.12748 | -97.70355 | 27121 ft | 417 kts | 338° |
| 2026-05-03 23:44 | 27.15553 | -97.71180 | 27114 ft | 417 kts | 338° |
| 2026-05-03 23:45 | 27.18361 | -97.72007 | 27113 ft | 417 kts | 338° |
| 2026-05-03 23:45 | 27.21132 | -97.72822 | 27111 ft | 417 kts | 338° |
| 2026-05-03 23:45 | 27.23940 | -97.73649 | 27111 ft | 417 kts | 338° |
| 2026-05-03 23:45 | 27.26747 | -97.74476 | 27127 ft | 417 kts | 338° |
| 2026-05-03 23:46 | 27.29548 | -97.75301 | 27123 ft | 415 kts | 338° |
| 2026-05-03 23:46 | 27.32348 | -97.76128 | 27117 ft | 415 kts | 338° |
| 2026-05-03 23:46 | 27.35148 | -97.76955 | 27115 ft | 416 kts | 338° |
| 2026-05-03 23:46 | 27.37945 | -97.77781 | 27113 ft | 416 kts | 338° |
| 2026-05-03 23:47 | 27.40743 | -97.78608 | 27115 ft | 416 kts | 338° |
| 2026-05-03 23:47 | 27.43544 | -97.79436 | 27138 ft | 416 kts | 338° |
| 2026-05-03 23:47 | 27.46344 | -97.80265 | 27139 ft | 416 kts | 338° |
| 2026-05-03 23:47 | 27.49146 | -97.81094 | 27139 ft | 416 kts | 338° |
| 2026-05-03 23:48 | 27.51945 | -97.81923 | 27138 ft | 416 kts | 338° |
| 2026-05-03 23:48 | 27.54676 | -97.82732 | 27138 ft | 416 kts | 338° |
| 2026-05-03 23:48 | 27.57468 | -97.83559 | 27139 ft | 416 kts | 338° |
| 2026-05-03 23:48 | 27.60178 | -97.84363 | 27137 ft | 416 kts | 338° |
| 2026-05-03 23:49 | 27.62965 | -97.85190 | 27135 ft | 416 kts | 338° |
| 2026-05-03 23:49 | 27.65722 | -97.86009 | 27132 ft | 416 kts | 338° |
| 2026-05-03 23:49 | 27.68520 | -97.86841 | 27112 ft | 416 kts | 338° |
| 2026-05-03 23:49 | 27.71321 | -97.87673 | 27111 ft | 416 kts | 338° |
| 2026-05-03 23:50 | 27.74124 | -97.88507 | 27111 ft | 416 kts | 338° |
| 2026-05-03 23:50 | 27.76012 | -97.89069 | 27111 ft | 416 kts | 338° |
| 2026-05-03 23:50 | 27.79723 | -97.90174 | 27112 ft | 416 kts | 338° |
| 2026-05-03 23:50 | 27.82523 | -97.91008 | 27112 ft | 416 kts | 338° |
| 2026-05-03 23:51 | 27.85321 | -97.91842 | 27100 ft | 416 kts | 338° |
| 2026-05-03 23:51 | 27.88109 | -97.92674 | 27123 ft | 415 kts | 338° |
| 2026-05-03 23:51 | 27.90898 | -97.93507 | 27119 ft | 415 kts | 338° |
| 2026-05-03 23:51 | 27.93694 | -97.94342 | 27121 ft | 414 kts | 338° |
| 2026-05-03 23:52 | 27.96487 | -97.95176 | 27123 ft | 415 kts | 338° |
| 2026-05-03 23:52 | 27.99238 | -97.95998 | 27122 ft | 415 kts | 338° |
| 2026-05-03 23:52 | 28.02014 | -97.96828 | 27114 ft | 415 kts | 338° |
| 2026-05-03 23:52 | 28.04814 | -97.97669 | 27126 ft | 417 kts | 338° |
| 2026-05-03 23:53 | 28.07615 | -97.98507 | 27108 ft | 416 kts | 338° |
| 2026-05-03 23:53 | 28.10419 | -97.99346 | 27099 ft | 416 kts | 338° |
| 2026-05-03 23:53 | 28.13166 | -98.00169 | 27081 ft | 417 kts | 338° |
| 2026-05-03 23:53 | 28.15901 | -98.00987 | 27063 ft | 415 kts | 338° |
| 2026-05-03 23:54 | 28.18691 | -98.01824 | 27073 ft | 416 kts | 338° |
| 2026-05-03 23:54 | 28.21476 | -98.02661 | 27077 ft | 416 kts | 338° |
| 2026-05-03 23:54 | 28.24264 | -98.03499 | 27089 ft | 416 kts | 338° |
| 2026-05-03 23:54 | 28.27055 | -98.04338 | 27092 ft | 415 kts | 338° |
| 2026-05-03 23:55 | 28.29760 | -98.05151 | 27092 ft | 415 kts | 338° |
| 2026-05-03 23:55 | 28.32567 | -98.05996 | 27085 ft | 415 kts | 338° |
| 2026-05-03 23:55 | 28.35363 | -98.06838 | 27089 ft | 415 kts | 338° |
| 2026-05-03 23:55 | 28.38161 | -98.07681 | 27085 ft | 416 kts | 338° |
| 2026-05-03 23:56 | 28.40944 | -98.08519 | 27076 ft | 415 kts | 338° |
| 2026-05-03 23:56 | 28.43671 | -98.09341 | 27073 ft | 415 kts | 338° |
| 2026-05-03 23:56 | 28.46465 | -98.10184 | 27078 ft | 415 kts | 338° |
| 2026-05-03 23:56 | 28.49254 | -98.11026 | 27073 ft | 415 kts | 338° |
| 2026-05-03 23:57 | 28.52034 | -98.11866 | 27070 ft | 415 kts | 338° |
| 2026-05-03 23:57 | 28.54823 | -98.12709 | 27070 ft | 415 kts | 338° |
| 2026-05-03 23:57 | 28.57556 | -98.13535 | 27067 ft | 415 kts | 338° |
| 2026-05-03 23:57 | 28.60342 | -98.14378 | 27067 ft | 415 kts | 338° |
| 2026-05-03 23:58 | 28.63134 | -98.15223 | 27066 ft | 415 kts | 338° |
| 2026-05-03 23:58 | 28.65889 | -98.16058 | 27066 ft | 415 kts | 338° |
| 2026-05-03 23:58 | 28.68648 | -98.16894 | 27065 ft | 415 kts | 338° |
| 2026-05-03 23:58 | 28.71402 | -98.17729 | 27098 ft | 414 kts | 338° |
| 2026-05-03 23:59 | 28.74176 | -98.18569 | 27066 ft | 412 kts | 337° |
| 2026-05-03 23:59 | 28.76957 | -98.19414 | 27058 ft | 413 kts | 337° |
| 2026-05-03 23:59 | 28.79712 | -98.20251 | 27068 ft | 413 kts | 337° |
| 2026-05-03 23:59 | 28.82436 | -98.21079 | 27070 ft | 413 kts | 337° |
| 2026-05-04 00:00 | 28.85229 | -98.21929 | 27076 ft | 413 kts | 337° |
| 2026-05-04 00:00 | 28.87985 | -98.22767 | 27071 ft | 412 kts | 337° |
| 2026-05-04 00:00 | 28.90740 | -98.23606 | 27069 ft | 413 kts | 337° |
| 2026-05-04 00:00 | 28.93517 | -98.24451 | 27071 ft | 413 kts | 337° |
| 2026-05-04 00:01 | 28.96302 | -98.25300 | 27068 ft | 413 kts | 337° |
| 2026-05-04 00:01 | 28.99081 | -98.26148 | 27068 ft | 413 kts | 337° |
| 2026-05-04 00:01 | 29.01760 | -98.26964 | 27050 ft | 410 kts | 337° |
| 2026-05-04 00:01 | 29.04519 | -98.27806 | 27067 ft | 411 kts | 337° |
| 2026-05-04 00:02 | 29.07282 | -98.28651 | 27074 ft | 411 kts | 337° |
| 2026-05-04 00:02 | 29.10047 | -98.29496 | 27072 ft | 411 kts | 337° |
| 2026-05-04 00:02 | 29.12810 | -98.30341 | 27074 ft | 411 kts | 337° |
| 2026-05-04 00:02 | 29.15576 | -98.31188 | 27074 ft | 411 kts | 337° |
| 2026-05-04 00:03 | 29.18340 | -98.32034 | 27072 ft | 411 kts | 337° |
| 2026-05-04 00:03 | 29.21071 | -98.32871 | 27075 ft | 411 kts | 337° |
| 2026-05-04 00:03 | 29.22937 | -98.33442 | 27082 ft | 411 kts | 337° |
| 2026-05-04 00:03 | 29.26594 | -98.34564 | 27079 ft | 411 kts | 337° |
| 2026-05-04 00:04 | 29.29343 | -98.35407 | 27063 ft | 412 kts | 337° |
| 2026-05-04 00:04 | 29.31173 | -98.35968 | 27105 ft | 410 kts | 337° |
| 2026-05-04 00:04 | 29.33944 | -98.36819 | 27093 ft | 411 kts | 337° |
| 2026-05-04 00:04 | 29.36714 | -98.37671 | 27096 ft | 412 kts | 337° |
| 2026-05-04 00:05 | 29.39479 | -98.38520 | 27098 ft | 411 kts | 337° |
| 2026-05-04 00:05 | 29.42252 | -98.39373 | 27100 ft | 411 kts | 337° |
| 2026-05-04 00:05 | 29.45014 | -98.40223 | 27102 ft | 411 kts | 337° |
| 2026-05-04 00:05 | 29.47715 | -98.41055 | 27102 ft | 411 kts | 337° |
| 2026-05-04 00:06 | 29.50445 | -98.41895 | 27101 ft | 411 kts | 337° |
| 2026-05-04 00:06 | 29.53125 | -98.42722 | 27100 ft | 411 kts | 337° |
| 2026-05-04 00:06 | 29.55902 | -98.43578 | 27114 ft | 411 kts | 337° |
| 2026-05-04 00:06 | 29.58656 | -98.44428 | 27105 ft | 410 kts | 337° |
| 2026-05-04 00:07 | 29.61420 | -98.45283 | 27110 ft | 411 kts | 337° |
| 2026-05-04 00:07 | 29.64184 | -98.46005 | 27116 ft | 417 kts | 346° |
| 2026-05-04 00:07 | 29.67111 | -98.45681 | 27103 ft | 427 kts | 359° |
| 2026-05-04 00:07 | 29.70032 | -98.45085 | 27070 ft | 428 kts | 1° |
| 2026-05-04 00:08 | 29.72949 | -98.44480 | 27108 ft | 427 kts | 0° |
| 2026-05-04 00:08 | 29.75878 | -98.43944 | 27104 ft | 425 kts | 359° |
| 2026-05-04 00:08 | 29.78751 | -98.43461 | 27101 ft | 423 kts | 359° |
| 2026-05-04 00:08 | 29.81628 | -98.42985 | 27097 ft | 422 kts | 359° |
| 2026-05-04 00:09 | 29.84528 | -98.42489 | 27130 ft | 424 kts | 359° |
| 2026-05-04 00:09 | 29.87444 | -98.41976 | 27088 ft | 423 kts | 360° |
| 2026-05-04 00:09 | 29.90303 | -98.41463 | 27093 ft | 423 kts | 359° |
| 2026-05-04 00:09 | 29.93200 | -98.40945 | 27098 ft | 423 kts | 360° |
| 2026-05-04 00:10 | 29.96107 | -98.40422 | 27101 ft | 422 kts | 360° |
| 2026-05-04 00:10 | 29.98992 | -98.39905 | 27102 ft | 423 kts | 359° |
| 2026-05-04 00:10 | 30.01887 | -98.39385 | 27104 ft | 423 kts | 360° |
| 2026-05-04 00:10 | 30.04796 | -98.38861 | 27099 ft | 423 kts | 360° |
| 2026-05-04 00:11 | 30.07713 | -98.38334 | 27102 ft | 423 kts | 360° |
| 2026-05-04 00:11 | 30.10547 | -98.37823 | 27098 ft | 423 kts | 360° |
| 2026-05-04 00:11 | 30.13460 | -98.37297 | 27117 ft | 423 kts | 0° |
| 2026-05-04 00:11 | 30.16369 | -98.36773 | 27104 ft | 422 kts | 360° |
| 2026-05-04 00:12 | 30.19265 | -98.36250 | 27093 ft | 423 kts | 0° |
| 2026-05-04 00:12 | 30.22136 | -98.35731 | 27094 ft | 423 kts | 0° |
| 2026-05-04 00:12 | 30.25023 | -98.35203 | 27107 ft | 423 kts | 360° |
| 2026-05-04 00:12 | 30.27902 | -98.34684 | 27110 ft | 423 kts | 360° |
| 2026-05-04 00:13 | 30.30804 | -98.34159 | 27109 ft | 423 kts | 0° |
| 2026-05-04 00:13 | 30.33708 | -98.33633 | 27107 ft | 421 kts | 0° |
| 2026-05-04 00:13 | 30.36605 | -98.33110 | 27112 ft | 421 kts | 0° |
| 2026-05-04 00:13 | 30.39470 | -98.32594 | 27109 ft | 421 kts | 0° |
| 2026-05-04 00:14 | 30.42322 | -98.32076 | 27112 ft | 421 kts | 0° |
| 2026-05-04 00:14 | 30.45222 | -98.31549 | 27107 ft | 421 kts | 0° |
| 2026-05-04 00:14 | 30.48069 | -98.31031 | 27110 ft | 421 kts | 0° |
| 2026-05-04 00:14 | 30.50960 | -98.30505 | 27113 ft | 421 kts | 0° |
| 2026-05-04 00:15 | 30.53796 | -98.29990 | 27113 ft | 422 kts | 0° |
| 2026-05-04 00:15 | 30.56699 | -98.29461 | 27110 ft | 422 kts | 0° |
| 2026-05-04 00:15 | 30.59600 | -98.28933 | 27107 ft | 421 kts | 0° |
| 2026-05-04 00:15 | 30.62490 | -98.28407 | 27116 ft | 421 kts | 0° |
| 2026-05-04 00:16 | 30.65339 | -98.27888 | 27120 ft | 421 kts | 0° |
| 2026-05-04 00:16 | 30.68224 | -98.27360 | 27112 ft | 422 kts | 0° |
| 2026-05-04 00:16 | 30.71078 | -98.26841 | 27111 ft | 422 kts | 0° |
| 2026-05-04 00:16 | 30.73891 | -98.26326 | 27125 ft | 421 kts | 0° |
| 2026-05-04 00:17 | 30.76751 | -98.25804 | 27122 ft | 422 kts | 0° |
| 2026-05-04 00:17 | 30.79624 | -98.25280 | 27120 ft | 422 kts | 0° |
| 2026-05-04 00:17 | 30.82526 | -98.24750 | 27121 ft | 422 kts | 0° |
| 2026-05-04 00:17 | 30.85427 | -98.24217 | 27120 ft | 422 kts | 0° |
| 2026-05-04 00:18 | 30.88212 | -98.23707 | 27118 ft | 422 kts | 0° |
| 2026-05-04 00:18 | 30.91000 | -98.23195 | 27115 ft | 421 kts | 0° |
| 2026-05-04 00:18 | 30.93835 | -98.22675 | 27091 ft | 421 kts | 0° |
| 2026-05-04 00:18 | 30.96719 | -98.22147 | 27094 ft | 422 kts | 0° |
| 2026-05-04 00:19 | 30.99580 | -98.21623 | 27093 ft | 423 kts | 0° |
| 2026-05-04 00:19 | 31.02427 | -98.21099 | 27097 ft | 422 kts | 0° |
| 2026-05-04 00:19 | 31.05292 | -98.20573 | 27085 ft | 422 kts | 0° |
| 2026-05-04 00:19 | 31.08131 | -98.20049 | 27084 ft | 422 kts | 0° |
| 2026-05-04 00:20 | 31.11038 | -98.19515 | 27087 ft | 422 kts | 0° |
| 2026-05-04 00:20 | 31.13937 | -98.18981 | 27084 ft | 422 kts | 1° |
| 2026-05-04 00:20 | 31.16807 | -98.18452 | 27080 ft | 422 kts | 1° |
| 2026-05-04 00:20 | 31.19636 | -98.17931 | 27082 ft | 422 kts | 0° |
| 2026-05-04 00:21 | 31.22487 | -98.17404 | 27079 ft | 422 kts | 0° |
| 2026-05-04 00:21 | 31.25387 | -98.16869 | 27080 ft | 422 kts | 1° |
| 2026-05-04 00:21 | 31.28299 | -98.16333 | 27055 ft | 425 kts | 1° |
| 2026-05-04 00:21 | 31.31208 | -98.15795 | 27065 ft | 424 kts | 1° |
| 2026-05-04 00:22 | 31.34131 | -98.15254 | 27072 ft | 424 kts | 1° |
| 2026-05-04 00:22 | 31.37044 | -98.14715 | 27080 ft | 424 kts | 1° |
| 2026-05-04 00:22 | 31.39959 | -98.14175 | 27071 ft | 424 kts | 1° |
| 2026-05-04 00:22 | 31.42866 | -98.13650 | 27077 ft | 423 kts | 0° |
| 2026-05-04 00:23 | 31.45778 | -98.13222 | 27075 ft | 422 kts | 359° |
| 2026-05-04 00:23 | 31.48693 | -98.12794 | 27078 ft | 422 kts | 359° |
| 2026-05-04 00:23 | 31.51606 | -98.12365 | 27072 ft | 422 kts | 359° |
| 2026-05-04 00:23 | 31.54520 | -98.11932 | 27092 ft | 422 kts | 360° |
| 2026-05-04 00:24 | 31.57433 | -98.11496 | 27076 ft | 422 kts | 360° |
| 2026-05-04 00:24 | 31.60306 | -98.11066 | 27070 ft | 422 kts | 360° |
| 2026-05-04 00:24 | 31.63223 | -98.10622 | 27068 ft | 423 kts | 1° |
| 2026-05-04 00:24 | 31.66069 | -98.09548 | 27096 ft | 443 kts | 22° |
| 2026-05-04 00:25 | 31.68751 | -98.07729 | 27105 ft | 446 kts | 22° |
| 2026-05-04 00:25 | 31.71444 | -98.05936 | 27084 ft | 445 kts | 22° |
| 2026-05-04 00:25 | 31.74137 | -98.04146 | 27092 ft | 444 kts | 22° |
| 2026-05-04 00:25 | 31.76766 | -98.02377 | 27085 ft | 445 kts | 22° |
| 2026-05-04 00:26 | 31.79421 | -98.00575 | 27077 ft | 445 kts | 22° |
| 2026-05-04 00:26 | 31.82086 | -97.98753 | 27073 ft | 445 kts | 22° |
| 2026-05-04 00:26 | 31.84748 | -97.96930 | 27070 ft | 444 kts | 22° |
| 2026-05-04 00:26 | 31.87291 | -97.95184 | 27054 ft | 441 kts | 22° |
| 2026-05-04 00:27 | 31.89945 | -97.93415 | 27065 ft | 440 kts | 21° |
| 2026-05-04 00:27 | 31.92630 | -97.91659 | 27056 ft | 440 kts | 21° |
| 2026-05-04 00:27 | 31.95276 | -97.89922 | 27054 ft | 440 kts | 21° |
| 2026-05-04 00:27 | 31.97907 | -97.88189 | 26817 ft | 435 kts | 21° |
| 2026-05-04 00:28 | 32.00520 | -97.86464 | 26514 ft | 430 kts | 21° |
| 2026-05-04 00:28 | 32.03121 | -97.84748 | 25906 ft | 433 kts | 21° |
| 2026-05-04 00:28 | 32.05749 | -97.83012 | 25320 ft | 432 kts | 22° |
| 2026-05-04 00:28 | 32.08361 | -97.81282 | 24712 ft | 430 kts | 23° |
| 2026-05-04 00:29 | 32.10949 | -97.79565 | 24147 ft | 425 kts | 23° |
| 2026-05-04 00:29 | 32.13516 | -97.77862 | 23541 ft | 421 kts | 24° |
| 2026-05-04 00:29 | 32.16056 | -97.76176 | 23029 ft | 414 kts | 24° |
| 2026-05-04 00:29 | 32.18534 | -97.74524 | 22520 ft | 412 kts | 24° |
| 2026-05-04 00:30 | 32.20981 | -97.72887 | 22068 ft | 410 kts | 24° |
| 2026-05-04 00:30 | 32.23459 | -97.71228 | 21544 ft | 408 kts | 25° |
| 2026-05-04 00:30 | 32.25939 | -97.69681 | 21068 ft | 403 kts | 22° |
| 2026-05-04 00:30 | 32.28495 | -97.68211 | 20479 ft | 401 kts | 21° |
| 2026-05-04 00:31 | 32.30940 | -97.66801 | 19972 ft | 397 kts | 22° |
| 2026-05-04 00:31 | 32.33410 | -97.65357 | 19448 ft | 394 kts | 22° |
| 2026-05-04 00:31 | 32.35852 | -97.63922 | 18926 ft | 389 kts | 23° |
| 2026-05-04 00:31 | 32.38196 | -97.62403 | 18418 ft | 383 kts | 32° |
| 2026-05-04 00:32 | 32.40186 | -97.60405 | 17904 ft | 377 kts | 40° |
| 2026-05-04 00:32 | 32.42055 | -97.58265 | 17408 ft | 372 kts | 42° |
| 2026-05-04 00:32 | 32.43863 | -97.56168 | 17062 ft | 367 kts | 42° |
| 2026-05-04 00:32 | 32.45687 | -97.54068 | 16690 ft | 368 kts | 42° |
| 2026-05-04 00:33 | 32.47472 | -97.52019 | 16447 ft | 367 kts | 42° |
| 2026-05-04 00:33 | 32.51140 | -97.47826 | 15912 ft | 368 kts | 42° |
| 2026-05-04 00:33 | 32.52946 | -97.45761 | 15634 ft | 365 kts | 42° |
| 2026-05-04 00:34 | 32.54767 | -97.43678 | 15379 ft | 365 kts | 42° |
| 2026-05-04 00:34 | 32.56551 | -97.41638 | 15099 ft | 357 kts | 42° |
| 2026-05-04 00:34 | 32.58296 | -97.39638 | 14782 ft | 352 kts | 43° |
| 2026-05-04 00:34 | 32.60026 | -97.37653 | 14469 ft | 349 kts | 42° |
| 2026-05-04 00:35 | 32.61745 | -97.35685 | 14073 ft | 341 kts | 43° |
| 2026-05-04 00:35 | 32.63426 | -97.33757 | 13726 ft | 332 kts | 43° |
| 2026-05-04 00:35 | 32.65016 | -97.31931 | 13402 ft | 323 kts | 43° |
| 2026-05-04 00:35 | 32.66589 | -97.30123 | 13139 ft | 313 kts | 43° |
| 2026-05-04 00:36 | 32.68121 | -97.28363 | 12929 ft | 304 kts | 43° |
| 2026-05-04 00:36 | 32.69624 | -97.26633 | 12716 ft | 302 kts | 43° |
| 2026-05-04 00:36 | 32.71105 | -97.24929 | 12611 ft | 302 kts | 43° |
| 2026-05-04 00:36 | 32.72607 | -97.23197 | 12461 ft | 306 kts | 43° |
| 2026-05-04 00:37 | 32.74119 | -97.21461 | 12295 ft | 299 kts | 43° |
| 2026-05-04 00:37 | 32.75583 | -97.19779 | 12161 ft | 287 kts | 43° |
| 2026-05-04 00:37 | 32.76976 | -97.18173 | 11959 ft | 280 kts | 43° |
| 2026-05-04 00:37 | 32.78534 | -97.16894 | 11680 ft | 273 kts | 18° |
| 2026-05-04 00:38 | 32.80359 | -97.16680 | 11410 ft | 260 kts | 357° |
| 2026-05-04 00:38 | 32.82164 | -97.16570 | 11178 ft | 259 kts | 1° |
| 2026-05-04 00:38 | 32.83946 | -97.16506 | 10949 ft | 257 kts | 357° |
| 2026-05-04 00:38 | 32.85730 | -97.16547 | 10717 ft | 257 kts | 357° |
| 2026-05-04 00:39 | 32.87514 | -97.16580 | 10479 ft | 256 kts | 357° |
| 2026-05-04 00:39 | 32.89268 | -97.16587 | 10236 ft | 257 kts | 357° |
| 2026-05-04 00:39 | 32.91053 | -97.16580 | 10010 ft | 256 kts | 359° |
| 2026-05-04 00:39 | 32.92774 | -97.16562 | 9767 ft | 255 kts | 357° |
| 2026-05-04 00:40 | 32.94558 | -97.16538 | 9497 ft | 255 kts | 358° |
| 2026-05-04 00:40 | 32.96309 | -97.16516 | 9250 ft | 255 kts | 359° |
| 2026-05-04 00:40 | 32.98072 | -97.16494 | 8993 ft | 255 kts | 359° |
| 2026-05-04 00:40 | 32.99850 | -97.16478 | 8748 ft | 254 kts | 359° |
| 2026-05-04 00:41 | 33.01614 | -97.16462 | 8498 ft | 252 kts | 358° |
| 2026-05-04 00:41 | 33.03349 | -97.16445 | 8160 ft | 248 kts | 358° |
| 2026-05-04 00:41 | 33.05052 | -97.16428 | 7787 ft | 244 kts | 358° |
| 2026-05-04 00:41 | 33.06723 | -97.16410 | 7417 ft | 240 kts | 358° |
| 2026-05-04 00:42 | 33.08390 | -97.16390 | 7057 ft | 237 kts | 358° |
| 2026-05-04 00:42 | 33.10036 | -97.16374 | 6666 ft | 236 kts | 358° |
| 2026-05-04 00:42 | 33.11676 | -97.16361 | 6279 ft | 235 kts | 358° |
| 2026-05-04 00:42 | 33.13301 | -97.16235 | 5868 ft | 235 kts | 13° |
| 2026-05-04 00:43 | 33.14679 | -97.15262 | 5476 ft | 231 kts | 49° |
| 2026-05-04 00:43 | 33.15336 | -97.13609 | 5087 ft | 218 kts | 86° |
| 2026-05-04 00:43 | 33.15390 | -97.11826 | 4701 ft | 213 kts | 94° |
| 2026-05-04 00:43 | 33.15442 | -97.10092 | 4311 ft | 212 kts | 93° |
| 2026-05-04 00:44 | 33.15318 | -97.08379 | 3901 ft | 203 kts | 116° |
| 2026-05-04 00:44 | 33.14464 | -97.07138 | 3502 ft | 191 kts | 152° |
| 2026-05-04 00:44 | 33.13316 | -97.06356 | 3118 ft | 189 kts | 154° |
| 2026-05-04 00:44 | 33.12190 | -97.05661 | 2982 ft | 171 kts | 165° |
| 2026-05-04 00:45 | 33.11069 | -97.05418 | 2998 ft | 160 kts | 178° |
| 2026-05-04 00:45 | 33.09958 | -97.05384 | 3020 ft | 162 kts | 181° |
| 2026-05-04 00:45 | 33.08827 | -97.05373 | 3015 ft | 163 kts | 181° |
| 2026-05-04 00:45 | 33.07715 | -97.05376 | 3019 ft | 161 kts | 182° |
| 2026-05-04 00:46 | 33.06596 | -97.05389 | 3004 ft | 162 kts | 183° |
| 2026-05-04 00:46 | 33.05469 | -97.05391 | 3003 ft | 161 kts | 181° |
| 2026-05-04 00:46 | 33.04356 | -97.05393 | 3004 ft | 161 kts | 182° |
| 2026-05-04 00:46 | 33.03226 | -97.05399 | 2886 ft | 166 kts | 182° |
| 2026-05-04 00:47 | 33.02087 | -97.05405 | 2665 ft | 161 kts | 182° |
| 2026-05-04 00:47 | 33.00978 | -97.05416 | 2450 ft | 159 kts | 182° |
| 2026-05-04 00:47 | 32.99884 | -97.05426 | 2252 ft | 154 kts | 181° |
| 2026-05-04 00:47 | 32.98872 | -97.05423 | 2082 ft | 144 kts | 181° |
| 2026-05-04 00:48 | 32.97904 | -97.05427 | 1872 ft | 136 kts | 181° |
| 2026-05-04 00:48 | 32.96958 | -97.05435 | 1703 ft | 136 kts | 182° |
| 2026-05-04 00:48 | 32.96050 | -97.05430 | 1520 ft | 126 kts | 178° |
| 2026-05-04 00:48 | 32.95199 | -97.05445 | 1351 ft | 118 kts | 183° |
| 2026-05-04 00:49 | 32.94396 | -97.05454 | 1206 ft | 118 kts | 180° |
| 2026-05-04 00:49 | 32.93571 | -97.05449 | 1076 ft | 125 kts | 180° |
| 2026-05-04 00:49 | 32.93016 | -97.05455 | 961 ft | 116 kts | 182° |
| 2026-05-04 00:49 | 32.92189 | -97.05457 | 771 ft | 124 kts | 182° |
| 2026-05-04 00:50 | 32.91323 | -97.05466 | 630 ft | 120 kts | 181° |
| 2026-05-04 00:50 | 32.90583 | -97.05470 | 611 ft | 88 kts | 179° |
| 2026-05-04 00:50 | 32.90096 | -97.05463 | 601 ft | 56 kts | 171° |
| 2026-05-04 00:50 | 32.89866 | -97.05352 | 612 ft | 24 kts | 151° |
| 2026-05-04 00:51 | 32.89761 | -97.05243 | 601 ft | 16 kts | 96° |
| 2026-05-04 00:51 | 32.89758 | -97.05112 | 600 ft | 17 kts | 90° |
| 2026-05-04 00:51 | 32.89757 | -97.04969 | 600 ft | 17 kts | 90° |
| 2026-05-04 00:51 | 32.89764 | -97.04895 | 599 ft | 3 kts | 52° |
| 2026-05-04 00:52 | 32.89809 | -97.04885 | 599 ft | 15 kts | 0° |
| 2026-05-04 00:52 | 32.89934 | -97.04886 | 598 ft | 20 kts | 360° |
| 2026-05-04 00:52 | 32.90080 | -97.04885 | 596 ft | 20 kts | 2° |
| 2026-05-04 00:52 | 32.90207 | -97.04884 | 597 ft | 17 kts | 0° |
| 2026-05-04 00:53 | 32.90254 | -97.04884 | 597 ft | 17 kts | 0° |
| 2026-05-04 00:53 | 32.90327 | -97.04871 | 597 ft | 9 kts | 47° |
| 2026-05-04 00:53 | 32.90334 | -97.04795 | 596 ft | 12 kts | 91° |
| 2026-05-04 00:53 | 32.90352 | -97.04761 | 595 ft | 7 kts | 4° |
| 2026-05-04 00:54 | 32.90457 | -97.04760 | 595 ft | 18 kts | 359° |
| 2026-05-04 00:54 | 32.90530 | -97.04760 | 595 ft | 12 kts | 0° |
| 2026-05-04 00:54 | 32.90550 | -97.04760 | 595 ft | 12 kts | 1° |
| 2026-05-04 00:54 | 32.90561 | -97.04759 | 595 ft | 11 kts | 4° |
| 2026-05-04 00:55 | 32.90577 | -97.04747 | 595 ft | 3 kts | 70° |
| 2026-05-04 00:55 | 32.90578 | -97.04715 | 594 ft | 8 kts | 90° |
| 2026-05-04 00:55 | 32.90577 | -97.04677 | 594 ft | 11 kts | 91° |
| 2026-05-04 00:55 | 32.90587 | -97.04634 | 594 ft | 8 kts | 56° |
| 2026-05-04 00:56 | 32.90594 | -97.04620 | 594 ft | 8 kts | 56° |
| 2026-05-04 00:56 | 32.90618 | -97.04578 | 594 ft | 7 kts | 56° |
| 2026-05-04 00:56 | 32.90621 | -97.04572 | 594 ft | 7 kts | 56° |
| 2026-05-04 00:57 | 32.90626 | -97.04564 | 594 ft | 6 kts | 57° |
| 2026-05-04 00:57 | 32.90634 | -97.04520 | 594 ft | 5 kts | 89° |
| 2026-05-04 00:57 | 32.90633 | -97.04506 | 594 ft | 0 kts | 91° |